AirNav   Air Wisconsin Up To $57,000 Bonus
 
 783 users online  

M20 Leitchfield-Grayson County Airport
Leitchfield, Kentucky, USA

GOING TO LEITCHFIELD?


FAA INFORMATION EFFECTIVE 26 MARCH 2020

Location

FAA Identifier: M20
Lat/Long: 37-23-59.1000N 086-15-40.6000W
37-23.985000N 086-15.676667W
37.3997500,-86.2612778
(estimated)
Elevation: 782 ft. / 238.4 m (surveyed)
Variation: 04W (2020)
From city: 4 miles SE of LEITCHFIELD, KY
Time zone: UTC -5 (UTC -6 during Standard Time)
Zip code: 42754

Airport Operations

Airport use: Open to the public
Activation date: 05/1978
Control tower: no
ARTCC: INDIANAPOLIS CENTER
FSS: LOUISVILLE FLIGHT SERVICE STATION
NOTAMs facility: LOU (NOTAM-D service available)
Attendance: UNATTENDED
Wind indicator: lighted
Segmented circle: yes
Lights: ACTVT MIRL RY 02/20 AND PAPI RYS 02 & 20 - CTAF.
Beacon: white-green (lighted land airport)
ACTVT ROTG BCN - CTAF.

Airport Communications

CTAF/UNICOM: 123.0
  • APCH/DEP SVC PRVDD BY INDIANAPOLIS ARTCC ON FREQS 121.175/353.65 (NEW HOPE RCAG).

Nearby radio navigation aids

VOR radial/distance  VOR name  Freq  Var
BWGr015/29.6BOWLING GREEN VORTAC117.9002E
MYSr183/(29.7)MYSTIC VOR108.2001W
EWOr242/31.1NEW HOPE VOR/DME110.8001E
FTKr205/33.4FORT KNOX VOR/DME109.6001W

 
NDB name  Hdg/Dist  Freq  Var  ID
GODMAN205/36.239603WGOI --. --- ..

Airport Services

Fuel available: 100LL
FUEL AVAILBL 24HR W/CREDIT CARD.
Parking: hangars and tiedowns
Bottled oxygen: NONE
Bulk oxygen: NONE

Runway Information

Runway 2/20

Dimensions: 4000 x 60 ft. / 1219 x 18 m
Surface: asphalt, in good condition
Weight bearing capacity: 
Single wheel: 12.5
Runway edge lights: medium intensity
RUNWAY 2  RUNWAY 20
Latitude: 37-23.672992N37-24.297340N
Longitude: 086-15.807367W086-15.544372W
Elevation: 705.6 ft.782.0 ft.
Traffic pattern: leftleft
Runway heading: 023 magnetic, 019 true203 magnetic, 199 true
Displaced threshold: 200 ft.no
Declared distances: LDA:3800
Markings: nonprecision, in good conditionnonprecision, in good condition
Visual slope indicator: 2-light PAPI on left (3.00 degrees glide path)2-light PAPI on left (3.00 degrees glide path)
Runway end identifier lights: yesyes
Touchdown point: yes, no lightsyes, no lights
Obstructions: none37 ft. road, 875 ft. from runway, 190 ft. left of centerline, 18:1 slope to clear

Airport Ownership and Management from official FAA records

Ownership: Publicly-owned
Owner: GRAYSON COUNTY AIRPORT BOARD
695 AIRPORT ROAD
LEITCHFIELD, KY 42754
Phone (502) 548-9282
ARPT BOARD CHAIRMAN: MARK COTTRELL
Manager: JOHN POPHAM
782 WHISPERING PINE CIRCLE
CLARKSON, KY 42754
Phone (270) 589-7251

Airport Operational Statistics

Aircraft based on the field: 14
Single engine airplanes: 14
    
Aircraft operations: avg 131/week *
44% transient general aviation
44% local general aviation
9% air taxi
4% military
* for 12-month period ending 21 November 2017

Additional Remarks

FOR CD CTC INDIANAPOLIS ARTCC AT 317-247-2411.

Instrument Procedures

NOTE: All procedures below are presented as PDF files. If you need a reader for these files, you should download the free Adobe Reader.

NOT FOR NAVIGATION. Please procure official charts for flight.
FAA instrument procedures published for use from 26 March 2020 at 0901Z to 23 April 2020 at 0900Z.

 
IAPs - Instrument Approach Procedures
RNAV (GPS) RWY 02   download (187KB)
RNAV (GPS) RWY 20   download (188KB)
NOTE: Special Take-Off Minimums/Departure Procedures apply   download (279KB)

Other nearby airports with instrument procedures:

KEKX - Addington Field Airport (23 nm NE)
I93 - Breckinridge County Airport (25 nm N)
KGLW - Glasgow Municipal Airport (27 nm SE)
KBWG - Bowling Green-Warren County Regional Airport (27 nm S)
KJQD - Ohio County Airport (28 nm W)
 
Loc | Ops | Rwys | IFR | FBO | Links
Com | Nav | Svcs | Stats | Notes
Area around M20 (Leitchfield-Grayson County Airport)
 
Road maps at: MapQuest Bing Google
 
Aerial photo
WARNING: Photo may not be current or correct
Aerial photo of M20 (Leitchfield-Grayson County Airport)
Do you have a better or more recent aerial photo of Leitchfield-Grayson County Airport that you would like to share? If so, please send us your photo.

 
Sectional chart

 
Airport distance calculator
Flying to Leitchfield-Grayson County Airport? Find the distance to fly.

From to M20

Sunrise and sunset
Times for 03-Apr-2020
 Local
(UTC-5)
 Zulu
(UTC)
Morning civil twilight06:0111:01
Sunrise06:2711:27
Sunset19:0900:09
Evening civil twilight19:3500:35

Current date and time
Zulu (UTC)  03-Apr-2020 23:54:31
Local (UTC-5)  03-Apr-2020 18:54:31
 
METAR
KGLW 
27nm SE 
032335Z AUTO 00000KT 10SM SCT095 18/07 A3000 RMK AO2 T01830071
KEKX 
27nm NE 
032335Z AUTO 00000KT 10SM CLR 18/08 A3000 RMK AO2 T01780075
KBWG 
27nm S 
032253Z AUTO 00000KT 10SM FEW090 20/08 A3000 RMK AO2 SLP158 T02000083
KFTK 
32nm NE 
032256Z AUTO 01006KT 10SM CLR 21/04 A3000 RMK AO2 SLP162 T02100041
KKY8 
44nm NW 
032335Z AUTO 00000KT 10SM OVC085 20/07 A3000 RMK A01
KBRY 
44nm NE 
032335Z AUTO 00000KT 10SM CLR 18/02 A3000 RMK AO1
KM21 
44nm W 
032335Z AUTO 00000KT 10SM OVC090 20/06 A3000 RMK AO2 T01970059
KAAS 
45nm E 
032335Z AUTO 00000KT 10SM OVC090 18/05 A3005 RMK AO1
KOWB 
47nm NW 
032256Z 31007KT 10SM OVC085 21/08 A3000 RMK AO2 SLP157 T02060083
K1M5 
50nm S 
032335Z AUTO 00000KT 10SM OVC100 19/08 A3000 RMK A01
TAF
KBWG 
27nm S 
031720Z 0318/0418 13004KT P6SM BKN100 TEMPO 0409/0412 5SM BR FM041500 07004KT P6SM BKN100
KFTK 
32nm NE 
031700Z 0317/0423 VRB06KT 9999 FEW080 QNH3001INS TX20/0318Z TN11/0407Z
NOTAMs
Click for the latest NOTAMs
NOTAMs are issued by the DoD/FAA and will open in a separate window not controlled by AirNav.

 

 
 

FBO, Fuel Providers, and Aircraft Ground Support

  
 Business Name 
 
 Contact 
 
 Services / Description 
 
Fuel Prices
 
Comments
  
Grayson County Airport 270-242-7700
no information available

If you are affiliated with Grayson County Airport and would like to show here your services, contact info, web link, logo, and more, click here
100LL
SS $4.40 
 Updated 20-Mar-2020
 
   1 read write
SS=Self service
Update Fuel Prices
 

Would you like to see your business listed on this page?

 If your business provides an interesting product or service to pilots, flight crews, aircraft, or users of the Leitchfield-Grayson County Airport, you should consider listing it here.  To start the listing process, click on the button below
 
Add a business
 

Other Pages about Leitchfield-Grayson County Airport

Update a link
 
Copyright © AirNav, LLC. All rights reserved. Privacy Policy  Contact